sensor_id;sensor_type;location;lat;lon;timestamp;pressure;altitude;pressure_sealevel;temperature;humidity
31011;BME280;26395;53.412;19.598;2023-11-19T00:03:47;101026.02;;;2.73;85.60
31011;BME280;26395;53.412;19.598;2023-11-19T00:19:24;101000.79;;;2.61;85.82
31011;BME280;26395;53.412;19.598;2023-11-19T00:35:01;100997.24;;;2.67;85.11
31011;BME280;26395;53.412;19.598;2023-11-19T00:50:18;100975.05;;;2.49;84.36
31011;BME280;26395;53.412;19.598;2023-11-19T01:05:59;100962.20;;;2.43;84.33
31011;BME280;26395;53.412;19.598;2023-11-19T01:21:36;100948.66;;;2.32;84.29
31011;BME280;26395;53.412;19.598;2023-11-19T01:37:13;100926.85;;;2.25;84.04
31011;BME280;26395;53.412;19.598;2023-11-19T01:52:54;100907.35;;;2.29;83.99
31011;BME280;26395;53.412;19.598;2023-11-19T02:08:30;100899.94;;;2.25;83.94
31011;BME280;26395;53.412;19.598;2023-11-19T02:24:10;100890.58;;;2.18;83.79
31011;BME280;26395;53.412;19.598;2023-11-19T02:39:48;100853.62;;;2.30;84.13
31011;BME280;26395;53.412;19.598;2023-11-19T02:55:25;100823.05;;;2.31;84.42
31011;BME280;26395;53.412;19.598;2023-11-19T03:11:07;100781.50;;;2.03;84.54
31011;BME280;26395;53.412;19.598;2023-11-19T03:26:49;100747.95;;;1.65;84.64
31011;BME280;26395;53.412;19.598;2023-11-19T03:42:26;100732.73;;;1.25;84.78
31011;BME280;26395;53.412;19.598;2023-11-19T03:58:03;100694.51;;;0.96;85.49
31011;BME280;26395;53.412;19.598;2023-11-19T04:13:40;100670.52;;;0.84;86.02
31011;BME280;26395;53.412;19.598;2023-11-19T04:29:17;100639.52;;;0.72;85.82
31011;BME280;26395;53.412;19.598;2023-11-19T04:44:54;100609.23;;;0.71;86.72
31011;BME280;26395;53.412;19.598;2023-11-19T05:00:31;100595.30;;;1.08;88.20
31011;BME280;26395;53.412;19.598;2023-11-19T05:16:08;100565.78;;;1.25;88.38
31011;BME280;26395;53.412;19.598;2023-11-19T05:31:45;100546.02;;;1.28;88.70
31011;BME280;26395;53.412;19.598;2023-11-19T05:47:22;100533.11;;;1.19;89.67
31011;BME280;26395;53.412;19.598;2023-11-19T06:02:59;100508.48;;;1.16;90.37
31011;BME280;26395;53.412;19.598;2023-11-19T06:18:37;100476.24;;;1.19;91.51
31011;BME280;26395;53.412;19.598;2023-11-19T06:34:13;100456.58;;;1.16;92.28
31011;BME280;26395;53.412;19.598;2023-11-19T06:49:50;100438.02;;;1.26;92.62
31011;BME280;26395;53.412;19.598;2023-11-19T07:05:27;100423.81;;;1.32;93.34
31011;BME280;26395;53.412;19.598;2023-11-19T07:21:06;100414.15;;;1.25;94.93
31011;BME280;26395;53.412;19.598;2023-11-19T07:36:43;100401.27;;;1.46;96.04
31011;BME280;26395;53.412;19.598;2023-11-19T07:52:20;100373.23;;;1.58;97.14
31011;BME280;26395;53.412;19.598;2023-11-19T08:07:58;100350.02;;;1.58;98.00
31011;BME280;26395;53.412;19.598;2023-11-19T08:23:36;100336.11;;;1.73;97.81
31011;BME280;26395;53.412;19.598;2023-11-19T08:39:12;100318.80;;;1.78;98.98
31011;BME280;26395;53.412;19.598;2023-11-19T08:54:50;100294.48;;;2.08;98.30
31011;BME280;26395;53.412;19.598;2023-11-19T09:10:28;100270.33;;;2.12;98.26
31011;BME280;26395;53.412;19.598;2023-11-19T09:26:05;100239.55;;;2.32;98.54
31011;BME280;26395;53.412;19.598;2023-11-19T09:41:43;100208.21;;;2.56;97.63
31011;BME280;26395;53.412;19.598;2023-11-19T09:57:21;100184.50;;;2.73;97.47
31011;BME280;26395;53.412;19.598;2023-11-19T10:12:58;100150.66;;;2.93;96.53
31011;BME280;26395;53.412;19.598;2023-11-19T10:28:41;100109.61;;;3.16;96.05
31011;BME280;26395;53.412;19.598;2023-11-19T10:44:33;100083.49;;;3.25;94.89
31011;BME280;26395;53.412;19.598;2023-11-19T11:00:12;100054.86;;;3.24;94.21
31011;BME280;26395;53.412;19.598;2023-11-19T11:15:53;100022.67;;;3.33;93.87
31011;BME280;26395;53.412;19.598;2023-11-19T11:31:39;100001.37;;;3.39;93.15
31011;BME280;26395;53.412;19.598;2023-11-19T11:47:20;99974.08;;;3.41;93.06
31011;BME280;26395;53.412;19.598;2023-11-19T12:03:00;99945.16;;;3.42;92.78
31011;BME280;26395;53.412;19.598;2023-11-19T12:18:39;99921.84;;;3.55;91.73
31011;BME280;26395;53.412;19.598;2023-11-19T12:34:16;99902.34;;;3.57;91.18
31011;BME280;26395;53.412;19.598;2023-11-19T12:49:57;99890.04;;;3.26;92.46
31011;BME280;26395;53.412;19.598;2023-11-19T13:05:34;99849.41;;;3.04;93.98
31011;BME280;26395;53.412;19.598;2023-11-19T13:21:11;99792.63;;;2.89;94.57
31011;BME280;26395;53.412;19.598;2023-11-19T13:36:48;99750.37;;;2.75;95.21
31011;BME280;26395;53.412;19.598;2023-11-19T13:52:26;99730.67;;;2.72;95.63
31011;BME280;26395;53.412;19.598;2023-11-19T14:08:04;99721.42;;;2.76;95.40
31011;BME280;26395;53.412;19.598;2023-11-19T14:23:48;99723.83;;;2.66;96.31
31011;BME280;26395;53.412;19.598;2023-11-19T14:39:26;99731.25;;;2.68;97.27
31011;BME280;26395;53.412;19.598;2023-11-19T14:55:03;99705.21;;;2.71;97.31
31011;BME280;26395;53.412;19.598;2023-11-19T15:10:41;99688.91;;;2.66;97.64
31011;BME280;26395;53.412;19.598;2023-11-19T15:26:19;99661.88;;;2.60;97.81
31011;BME280;26395;53.412;19.598;2023-11-19T15:41:56;99644.38;;;2.61;98.00
31011;BME280;26395;53.412;19.598;2023-11-19T15:57:33;99636.02;;;2.65;98.01
31011;BME280;26395;53.412;19.598;2023-11-19T16:13:10;99629.56;;;2.76;97.69
31011;BME280;26395;53.412;19.598;2023-11-19T16:28:47;99632.66;;;2.87;97.74
31011;BME280;26395;53.412;19.598;2023-11-19T16:44:25;99620.46;;;2.83;98.12
31011;BME280;26395;53.412;19.598;2023-11-19T17:00:04;99599.48;;;2.77;98.76
31011;BME280;26395;53.412;19.598;2023-11-19T17:15:41;99584.52;;;2.76;98.65
31011;BME280;26395;53.412;19.598;2023-11-19T17:31:18;99556.28;;;2.80;98.96
31011;BME280;26395;53.412;19.598;2023-11-19T17:47:15;99548.21;;;2.81;99.31
31011;BME280;26395;53.412;19.598;2023-11-19T18:02:52;99537.14;;;2.92;99.23
31011;BME280;26395;53.412;19.598;2023-11-19T18:18:29;99525.33;;;2.98;99.31
31011;BME280;26395;53.412;19.598;2023-11-19T18:34:06;99521.91;;;3.05;99.67
31011;BME280;26395;53.412;19.598;2023-11-19T18:49:43;99510.95;;;3.14;99.41
31011;BME280;26395;53.412;19.598;2023-11-19T19:05:20;99501.94;;;3.07;99.79
31011;BME280;26395;53.412;19.598;2023-11-19T19:20:57;99493.85;;;3.01;99.99
31011;BME280;26395;53.412;19.598;2023-11-19T19:36:34;99493.07;;;2.95;100.00
31011;BME280;26395;53.412;19.598;2023-11-19T19:52:11;99489.12;;;3.05;99.97
31011;BME280;26395;53.412;19.598;2023-11-19T20:07:59;99484.48;;;3.14;100.00
31011;BME280;26395;53.412;19.598;2023-11-19T20:23:35;99479.70;;;3.14;99.84
31011;BME280;26395;53.412;19.598;2023-11-19T20:39:12;99473.16;;;3.11;99.94
31011;BME280;26395;53.412;19.598;2023-11-19T20:54:50;99459.94;;;3.29;99.83
31011;BME280;26395;53.412;19.598;2023-11-19T21:10:28;99459.66;;;3.13;100.00
31011;BME280;26395;53.412;19.598;2023-11-19T21:26:05;99447.41;;;3.11;100.00
31011;BME280;26395;53.412;19.598;2023-11-19T21:41:43;99447.64;;;3.17;100.00
31011;BME280;26395;53.412;19.598;2023-11-19T21:57:24;99446.86;;;3.24;100.00
31011;BME280;26395;53.412;19.598;2023-11-19T22:13:01;99428.38;;;3.21;100.00
31011;BME280;26395;53.412;19.598;2023-11-19T22:28:38;99423.62;;;3.20;100.00
31011;BME280;26395;53.412;19.598;2023-11-19T22:44:15;99425.13;;;3.28;100.00
31011;BME280;26395;53.412;19.598;2023-11-19T22:59:53;99420.60;;;3.26;100.00
31011;BME280;26395;53.412;19.598;2023-11-19T23:15:30;99420.46;;;3.33;100.00
31011;BME280;26395;53.412;19.598;2023-11-19T23:31:09;99417.91;;;3.30;100.00
31011;BME280;26395;53.412;19.598;2023-11-19T23:46:46;99407.61;;;3.39;100.00
